Time;durP1;ratioP1;P1;durP2;ratioP2;P2;SDS_P1;SDS_P2;PMS_P1;PMS_P2;Temp;Humidity;BMP_temperature;BMP_pressure;BME280_temperature;BME280_humidity;BME280_pressure;Samples;Min_cycle;Max_cycle;Signal;HPM_P1;HPM_P2
2022/10/25 00:01:25;;;;;;;8.07;1.93;;;13.20;99.90;;;;;;5041360;28;20269;-44
2022/10/25 00:03:54;;;;;;;8.50;2.30;;;13.10;99.90;;;;;;5039942;28;20191;-41
2022/10/25 00:06:20;;;;;;;9.30;2.03;;;13.10;99.90;;;;;;5025059;28;20214;-44
2022/10/25 00:08:47;;;;;;;5.37;2.07;;;13.10;99.90;;;;;;5039386;28;20219;-43
2022/10/25 00:11:19;;;;;;;9.60;2.13;;;13.10;99.90;;;;;;5042619;28;20223;-42
2022/10/25 00:13:45;;;;;;;7.57;2.30;;;13.10;99.90;;;;;;5038841;28;20199;-44
2022/10/25 00:16:14;;;;;;;8.13;2.50;;;13.00;99.90;;;;;;5036808;28;20212;-45
2022/10/25 00:18:41;;;;;;;3.87;2.00;;;13.00;99.90;;;;;;5038977;28;20275;-43
2022/10/25 00:21:09;;;;;;;9.60;2.10;;;13.00;99.90;;;;;;5026154;28;20215;-43
2022/10/25 00:23:35;;;;;;;5.23;1.90;;;13.00;99.90;;;;;;5037140;28;20211;-43
2022/10/25 00:26:02;;;;;;;8.30;1.97;;;12.90;99.90;;;;;;5042722;28;20687;-43
2022/10/25 00:28:29;;;;;;;7.50;2.27;;;12.90;99.90;;;;;;5043209;28;20230;-45
2022/10/25 00:31:00;;;;;;;8.20;2.30;;;12.90;99.90;;;;;;5039407;28;20203;-42
2022/10/25 00:33:28;;;;;;;8.27;2.60;;;12.80;99.90;;;;;;5037798;28;20200;-43
2022/10/25 00:35:54;;;;;;;7.53;2.30;;;12.80;99.90;;;;;;5038618;28;20202;-43
2022/10/25 00:38:22;;;;;;;10.57;2.83;;;12.80;99.90;;;;;;5028096;28;20821;-47
2022/10/25 00:40:49;;;;;;;9.53;2.70;;;12.80;99.90;;;;;;5040434;28;20906;-45
2022/10/25 00:43:31;;;;;;;4.90;2.47;;;12.70;99.90;;;;;;5044956;28;20187;-42
2022/10/25 00:45:57;;;;;;;6.10;2.40;;;12.70;99.90;;;;;;5035334;28;20195;-42
2022/10/25 00:48:24;;;;;;;6.90;2.33;;;12.70;99.90;;;;;;5044070;28;20699;-43
2022/10/25 00:50:54;;;;;;;5.83;2.73;;;12.70;99.90;;;;;;5043918;28;20198;-42
2022/10/25 00:53:28;;;;;;;6.23;2.70;;;12.70;99.90;;;;;;5026681;28;20695;-44
2022/10/25 00:56:02;;;;;;;7.17;2.93;;;12.70;99.90;;;;;;5044563;28;20195;-44
2022/10/25 00:58:33;;;;;;;5.70;2.60;;;12.70;99.90;;;;;;5043051;28;20204;-44
2022/10/25 01:01:00;;;;;;;8.63;3.03;;;12.70;99.90;;;;;;5039326;28;20211;-46
2022/10/25 01:03:27;;;;;;;12.47;3.70;;;12.70;99.90;;;;;;5037584;28;20208;-44
2022/10/25 01:05:54;;;;;;;10.30;2.90;;;12.60;99.90;;;;;;5029216;28;20817;-44
2022/10/25 01:08:22;;;;;;;10.60;2.73;;;12.60;99.90;;;;;;5024998;28;20226;-41
2022/10/25 01:10:50;;;;;;;7.60;3.20;;;12.60;99.90;;;;;;5043139;28;20272;-42
2022/10/25 01:13:16;;;;;;;7.47;2.73;;;12.60;99.90;;;;;;5044013;28;20203;-42
2022/10/25 01:15:56;;;;;;;9.47;3.10;;;12.60;99.90;;;;;;5036016;28;20208;-43
2022/10/25 01:18:30;;;;;;;9.60;3.40;;;12.60;99.90;;;;;;5043739;28;20207;-43
2022/10/25 01:21:28;;;;;;;7.73;3.10;;;12.70;99.90;;;;;;5044644;28;20214;-42
2022/10/25 01:24:11;;;;;;;9.70;2.87;;;12.60;99.90;;;;;;5025792;28;20215;-42
2022/10/25 01:27:10;;;;;;;6.27;3.23;;;12.70;99.90;;;;;;5036160;28;20195;-47
2022/10/25 01:29:55;;;;;;;8.47;3.97;;;12.70;99.90;;;;;;5041128;28;20191;-42
2022/10/25 01:32:27;;;;;;;10.83;2.97;;;12.70;99.90;;;;;;5037920;28;20690;-41
2022/10/25 01:35:00;;;;;;;8.27;3.30;;;12.70;99.90;;;;;;5036944;28;20195;-43
2022/10/25 01:37:42;;;;;;;9.70;3.67;;;12.70;99.90;;;;;;5032415;28;20287;-43
2022/10/25 01:40:21;;;;;;;9.60;3.53;;;12.70;99.90;;;;;;5043739;28;20195;-44
2022/10/25 01:42:53;;;;;;;5.97;3.50;;;12.80;99.90;;;;;;5042226;28;20950;-45
2022/10/25 01:45:26;;;;;;;7.43;3.13;;;12.80;99.90;;;;;;5043004;28;20203;-46
2022/10/25 01:48:02;;;;;;;12.30;3.37;;;12.80;99.90;;;;;;5037487;28;20227;-44
2022/10/25 01:50:32;;;;;;;5.17;2.80;;;12.80;99.90;;;;;;5036439;28;20286;-43
2022/10/25 01:52:59;;;;;;;7.33;3.43;;;12.90;99.90;;;;;;5043857;28;20211;-44
2022/10/25 01:55:31;;;;;;;10.53;3.40;;;12.90;99.90;;;;;;5025038;28;20208;-42
2022/10/25 01:58:05;;;;;;;5.73;2.87;;;12.90;99.90;;;;;;5043963;28;20200;-42
2022/10/25 02:00:41;;;;;;;7.00;3.77;;;12.90;99.90;;;;;;5041219;28;20198;-45
2022/10/25 02:03:17;;;;;;;10.90;3.33;;;13.00;99.90;;;;;;5038365;28;20223;-45
2022/10/25 02:05:55;;;;;;;13.60;3.93;;;13.00;99.90;;;;;;5041153;28;20478;-43
2022/10/25 02:08:34;;;;;;;9.27;3.17;;;13.00;99.90;;;;;;5037904;28;20219;-44
2022/10/25 02:11:08;;;;;;;11.83;3.40;;;13.00;99.90;;;;;;5026006;28;20207;-42
2022/10/25 02:13:47;;;;;;;11.10;3.10;;;13.00;99.90;;;;;;5038904;28;20210;-43
2022/10/25 02:16:19;;;;;;;11.40;3.50;;;13.00;99.90;;;;;;5044327;28;20211;-45
2022/10/25 02:18:51;;;;;;;9.03;3.63;;;13.10;99.90;;;;;;5035377;28;20199;-46
2022/10/25 02:21:19;;;;;;;7.43;3.30;;;13.10;99.90;;;;;;5043715;28;20231;-43
2022/10/25 02:23:46;;;;;;;8.83;3.53;;;13.10;99.90;;;;;;5039787;28;20349;-45
2022/10/25 02:26:14;;;;;;;8.23;3.50;;;13.10;99.90;;;;;;5027593;28;20207;-47
2022/10/25 02:28:42;;;;;;;12.60;4.00;;;13.10;99.90;;;;;;5039993;28;20934;-44
2022/10/25 02:31:12;;;;;;;10.10;3.53;;;13.00;99.90;;;;;;5043940;28;20207;-47
2022/10/25 02:33:39;;;;;;;10.03;3.90;;;13.00;99.90;;;;;;5033137;28;20206;-42
2022/10/25 02:36:12;;;;;;;9.73;4.40;;;13.00;99.90;;;;;;5043930;28;20204;-42
2022/10/25 02:38:39;;;;;;;8.73;4.10;;;13.00;99.90;;;;;;5036971;28;20199;-44
2022/10/25 02:41:06;;;;;;;10.63;4.90;;;12.90;99.90;;;;;;5042736;28;20214;-42
2022/10/25 02:43:33;;;;;;;8.57;3.70;;;12.90;99.90;;;;;;5022104;28;20214;-42
2022/10/25 02:45:59;;;;;;;9.23;4.80;;;12.90;99.90;;;;;;5043689;28;20200;-44
2022/10/25 02:48:26;;;;;;;7.33;4.23;;;12.90;99.90;;;;;;5041374;28;20203;-42
2022/10/25 02:50:53;;;;;;;12.40;5.00;;;12.90;99.90;;;;;;5036316;28;20837;-46
2022/10/25 02:53:21;;;;;;;12.07;4.87;;;12.90;99.90;;;;;;5041305;28;20199;-46
2022/10/25 02:55:47;;;;;;;14.63;4.63;;;12.90;99.90;;;;;;5040764;28;20199;-43
2022/10/25 02:58:14;;;;;;;9.23;4.93;;;12.90;99.90;;;;;;5027192;28;20210;-46
2022/10/25 03:00:41;;;;;;;9.00;4.70;;;12.90;99.90;;;;;;5039800;28;20302;-43
2022/10/25 03:03:08;;;;;;;16.27;5.90;;;12.90;99.90;;;;;;5042973;28;20753;-44
2022/10/25 03:05:35;;;;;;;10.07;5.63;;;12.90;99.90;;;;;;5030695;28;20199;-45
2022/10/25 03:08:01;;;;;;;11.47;5.27;;;12.90;99.90;;;;;;5033485;28;20234;-43
2022/10/25 03:10:29;;;;;;;11.20;5.20;;;12.90;99.90;;;;;;5037872;28;20195;-48
2022/10/25 03:12:56;;;;;;;12.37;5.53;;;12.90;99.90;;;;;;5026186;28;20242;-44
2022/10/25 03:15:22;;;;;;;11.73;5.90;;;12.90;99.90;;;;;;5040504;28;20202;-43
2022/10/25 03:17:50;;;;;;;11.47;6.03;;;12.90;99.90;;;;;;5040891;28;20187;-46
2022/10/25 03:20:16;;;;;;;11.57;6.80;;;12.80;99.90;;;;;;5043005;28;20206;-46
2022/10/25 03:22:43;;;;;;;10.50;5.70;;;12.80;99.90;;;;;;5033498;28;20227;-41
2022/10/25 03:25:10;;;;;;;15.27;6.13;;;12.90;99.90;;;;;;5041403;28;20203;-45
2022/10/25 03:27:38;;;;;;;11.90;6.50;;;12.90;99.90;;;;;;5022123;28;20210;-45
2022/10/25 03:30:05;;;;;;;12.90;6.13;;;12.80;99.90;;;;;;5042468;28;20245;-43
2022/10/25 03:32:32;;;;;;;7.87;5.90;;;12.90;99.90;;;;;;5037893;28;20238;-41
2022/10/25 03:34:58;;;;;;;15.70;6.43;;;12.90;99.90;;;;;;5041604;28;20195;-43
2022/10/25 03:37:25;;;;;;;13.17;6.77;;;12.90;99.90;;;;;;5041032;28;20564;-42
2022/10/25 03:39:52;;;;;;;12.20;6.07;;;12.90;99.90;;;;;;5041279;28;20353;-41
2022/10/25 03:42:19;;;;;;;15.73;6.67;;;12.90;99.90;;;;;;5042275;28;20738;-43
2022/10/25 03:44:48;;;;;;;14.60;6.87;;;12.90;99.90;;;;;;5023236;28;20455;-44
2022/10/25 03:47:14;;;;;;;11.50;7.10;;;12.90;99.90;;;;;;5042233;28;20195;-45
2022/10/25 03:49:41;;;;;;;14.00;7.43;;;12.90;99.90;;;;;;5038974;28;20222;-47
2022/10/25 03:52:08;;;;;;;13.70;7.80;;;13.00;99.90;;;;;;5041915;28;20597;-45
2022/10/25 03:54:35;;;;;;;13.70;6.53;;;13.00;99.90;;;;;;5037319;28;20207;-44
2022/10/25 03:57:02;;;;;;;15.57;7.40;;;13.00;99.90;;;;;;5043313;28;20596;-46
2022/10/25 03:59:29;;;;;;;16.40;8.43;;;13.10;99.90;;;;;;5023439;28;20204;-43
2022/10/25 04:01:57;;;;;;;15.47;8.57;;;13.10;99.90;;;;;;5032850;28;20254;-44
2022/10/25 04:04:23;;;;;;;14.30;8.17;;;13.10;99.90;;;;;;5040729;28;20200;-42
2022/10/25 04:06:50;;;;;;;14.30;7.57;;;13.10;99.90;;;;;;5038755;28;20214;-45
2022/10/25 04:09:16;;;;;;;16.77;8.70;;;13.20;99.90;;;;;;5044595;28;20215;-45
2022/10/25 04:11:43;;;;;;;15.17;8.47;;;13.20;99.90;;;;;;5036637;28;20226;-48
2022/10/25 04:14:10;;;;;;;10.50;7.77;;;13.20;99.90;;;;;;5045020;28;20199;-44
2022/10/25 04:16:36;;;;;;;15.23;7.47;;;13.20;99.90;;;;;;5029122;28;20929;-45
2022/10/25 04:19:04;;;;;;;13.43;7.53;;;13.20;99.90;;;;;;5028746;28;20207;-42
2022/10/25 04:21:31;;;;;;;17.93;7.67;;;13.30;99.90;;;;;;5037915;28;20237;-43
2022/10/25 04:23:58;;;;;;;15.43;6.70;;;13.30;99.90;;;;;;5037383;28;20199;-48
2022/10/25 04:26:24;;;;;;;12.80;7.50;;;13.30;99.90;;;;;;5033344;28;20572;-44
2022/10/25 04:28:52;;;;;;;13.30;7.80;;;13.30;99.90;;;;;;5045666;28;20571;-45
2022/10/25 04:31:21;;;;;;;16.53;8.33;;;13.30;99.90;;;;;;5018270;28;20231;-45
2022/10/25 04:33:48;;;;;;;14.03;7.17;;;13.30;99.90;;;;;;5044431;28;20220;-43
2022/10/25 04:36:16;;;;;;;18.70;7.80;;;13.30;99.90;;;;;;5035292;28;21056;-43
2022/10/25 04:38:43;;;;;;;11.03;6.30;;;13.20;99.90;;;;;;5045560;28;20196;-45
2022/10/25 04:41:10;;;;;;;9.27;6.27;;;13.30;99.90;;;;;;5041698;28;20215;-45
2022/10/25 04:43:37;;;;;;;18.93;7.87;;;13.20;99.90;;;;;;5033655;28;20253;-44
2022/10/25 04:46:04;;;;;;;16.73;9.00;;;13.20;99.90;;;;;;5024073;28;20216;-45
2022/10/25 04:48:30;;;;;;;18.83;7.90;;;13.20;99.90;;;;;;5039042;28;20211;-42
2022/10/25 04:50:58;;;;;;;15.63;8.63;;;13.20;99.90;;;;;;5036561;28;20203;-44
2022/10/25 04:53:27;;;;;;;17.87;7.90;;;13.20;99.90;;;;;;5038770;28;20226;-43
2022/10/25 04:55:57;;;;;;;13.17;7.33;;;13.20;99.90;;;;;;5040360;28;20219;-45
2022/10/25 04:58:25;;;;;;;14.73;7.33;;;13.20;99.90;;;;;;5043555;28;20196;-43
2022/10/25 05:00:52;;;;;;;20.93;8.20;;;13.20;99.90;;;;;;5023554;28;20330;-48
2022/10/25 05:03:19;;;;;;;16.97;8.77;;;13.20;99.90;;;;;;5038167;28;20221;-44
2022/10/25 05:05:46;;;;;;;12.93;8.13;;;13.20;99.90;;;;;;5041252;28;20203;-45
2022/10/25 05:08:13;;;;;;;16.10;8.10;;;13.20;99.90;;;;;;5034151;28;20211;-43
2022/10/25 05:10:41;;;;;;;16.67;8.80;;;13.30;99.90;;;;;;5042735;28;20585;-47
2022/10/25 05:13:07;;;;;;;19.63;9.60;;;13.30;99.90;;;;;;5043668;28;20467;-43
2022/10/25 05:15:34;;;;;;;19.13;10.10;;;13.30;99.90;;;;;;5036746;28;20661;-43
2022/10/25 05:18:01;;;;;;;12.10;7.77;;;13.30;99.90;;;;;;5032722;28;20203;-46
2022/10/25 05:20:28;;;;;;;15.90;8.03;;;13.30;99.90;;;;;;5038102;28;20204;-44
2022/10/25 05:22:55;;;;;;;14.10;8.60;;;13.30;99.90;;;;;;5034451;28;20226;-42
2022/10/25 05:25:21;;;;;;;11.50;7.60;;;13.30;99.90;;;;;;5038534;28;20203;-46
2022/10/25 05:27:49;;;;;;;16.30;8.50;;;13.30;99.90;;;;;;5040690;28;20288;-43
2022/10/25 05:30:16;;;;;;;14.90;8.43;;;13.30;99.90;;;;;;5044371;28;20219;-43
2022/10/25 05:32:43;;;;;;;18.20;9.27;;;13.30;99.90;;;;;;5024558;28;20235;-48
2022/10/25 05:35:09;;;;;;;21.17;9.77;;;13.30;99.90;;;;;;5032706;28;20253;-45
2022/10/25 05:37:36;;;;;;;18.60;9.23;;;13.30;99.90;;;;;;5040410;28;20200;-43
2022/10/25 05:40:03;;;;;;;18.00;8.80;;;13.30;99.90;;;;;;5033126;28;20959;-44
2022/10/25 05:42:30;;;;;;;14.33;8.77;;;13.30;99.90;;;;;;5044124;28;20598;-43
2022/10/25 05:44:58;;;;;;;17.93;10.03;;;13.30;99.90;;;;;;5039023;28;20191;-47
2022/10/25 05:47:25;;;;;;;14.57;8.40;;;13.30;99.90;;;;;;5028635;28;20214;-43
2022/10/25 05:49:51;;;;;;;15.13;8.63;;;13.30;99.90;;;;;;5033779;28;20219;-45
2022/10/25 05:52:18;;;;;;;13.07;8.20;;;13.30;99.90;;;;;;5042884;28;20309;-47
2022/10/25 05:54:45;;;;;;;16.67;8.83;;;13.30;99.90;;;;;;5034370;28;20277;-42
2022/10/25 05:57:11;;;;;;;12.30;7.93;;;13.40;99.90;;;;;;5038591;28;20206;-43
2022/10/25 05:59:38;;;;;;;11.17;8.40;;;13.30;99.90;;;;;;5042913;28;20199;-42
2022/10/25 06:02:06;;;;;;;12.77;7.83;;;13.40;99.90;;;;;;5042077;28;20218;-47
2022/10/25 06:04:32;;;;;;;11.90;8.03;;;13.40;99.90;;;;;;5024324;28;20207;-44
2022/10/25 06:06:59;;;;;;;15.30;8.97;;;13.40;99.90;;;;;;5032911;28;20308;-44
2022/10/25 06:09:26;;;;;;;17.53;8.17;;;13.40;99.90;;;;;;5039606;28;20302;-42
2022/10/25 06:11:54;;;;;;;11.17;8.60;;;13.40;99.90;;;;;;5038195;28;20222;-43
2022/10/25 06:14:20;;;;;;;15.10;8.67;;;13.40;99.90;;;;;;5042822;28;20199;-43
2022/10/25 06:16:48;;;;;;;16.10;9.60;;;13.40;99.90;;;;;;5040080;28;20199;-43
2022/10/25 06:19:16;;;;;;;16.63;8.83;;;13.40;99.90;;;;;;5027406;28;20196;-43
2022/10/25 06:21:42;;;;;;;15.53;9.47;;;13.40;99.90;;;;;;5034397;28;20238;-44
2022/10/25 06:24:09;;;;;;;16.73;8.73;;;13.40;99.90;;;;;;5041975;28;20206;-42
2022/10/25 06:26:36;;;;;;;18.93;9.53;;;13.40;99.90;;;;;;5042141;28;20203;-47
2022/10/25 06:29:04;;;;;;;15.57;9.63;;;13.40;99.90;;;;;;5042144;28;20420;-43
2022/10/25 06:31:32;;;;;;;11.97;8.47;;;13.50;99.90;;;;;;5043435;28;20233;-47
2022/10/25 06:33:59;;;;;;;15.73;9.97;;;13.50;99.90;;;;;;5024229;28;20212;-43
2022/10/25 06:36:29;;;;;;;18.17;10.70;;;13.40;99.90;;;;;;5043553;28;20788;-43
2022/10/25 06:38:56;;;;;;;14.60;9.50;;;13.40;99.90;;;;;;5034146;28;20249;-42
2022/10/25 06:41:26;;;;;;;20.67;11.50;;;13.30;99.90;;;;;;5043721;28;20872;-44
2022/10/25 06:43:54;;;;;;;17.93;11.07;;;13.30;99.90;;;;;;5038819;28;20194;-43
2022/10/25 06:46:22;;;;;;;15.23;10.00;;;13.30;99.90;;;;;;5042532;28;20572;-44
2022/10/25 06:48:49;;;;;;;16.40;10.90;;;13.30;99.90;;;;;;5037034;28;20218;-45
2022/10/25 06:51:16;;;;;;;17.00;10.07;;;13.30;99.90;;;;;;5013067;28;20211;-42
2022/10/25 06:53:44;;;;;;;16.07;10.23;;;13.30;99.90;;;;;;5030537;28;20687;-42
2022/10/25 06:56:12;;;;;;;18.20;10.97;;;13.30;99.90;;;;;;5031022;28;20825;-44
2022/10/25 06:58:39;;;;;;;18.37;10.97;;;13.30;99.90;;;;;;5030990;28;20203;-43
2022/10/25 07:01:08;;;;;;;16.00;10.80;;;13.30;99.90;;;;;;5029896;28;20214;-44
2022/10/25 07:03:35;;;;;;;22.73;11.73;;;13.30;99.90;;;;;;5030439;28;20648;-43
2022/10/25 07:06:04;;;;;;;18.80;10.43;;;13.30;99.90;;;;;;5021594;28;20206;-43
2022/10/25 07:08:31;;;;;;;21.77;11.70;;;13.40;99.90;;;;;;5031221;28;20580;-49
2022/10/25 07:11:00;;;;;;;17.30;11.30;;;13.40;99.90;;;;;;5032701;28;20219;-43
2022/10/25 07:13:27;;;;;;;20.10;12.20;;;13.40;99.90;;;;;;5038908;28;20811;-43
2022/10/25 07:15:53;;;;;;;20.47;11.90;;;13.40;99.90;;;;;;5038166;28;20196;-48
2022/10/25 07:18:20;;;;;;;19.33;11.67;;;13.40;99.90;;;;;;5031115;28;20262;-42
2022/10/25 07:20:49;;;;;;;26.50;12.63;;;13.40;99.90;;;;;;5041051;28;20199;-44
2022/10/25 07:23:16;;;;;;;20.80;11.87;;;13.50;99.90;;;;;;5014505;28;20211;-43
2022/10/25 07:25:43;;;;;;;19.63;11.43;;;13.50;99.90;;;;;;5035003;28;20253;-42
2022/10/25 07:28:12;;;;;;;17.57;11.37;;;13.50;99.90;;;;;;5032481;28;20210;-44
2022/10/25 07:30:44;;;;;;;23.10;12.70;;;13.50;99.90;;;;;;5039343;28;20227;-43
2022/10/25 07:33:11;;;;;;;21.63;13.20;;;13.60;99.90;;;;;;5035211;28;20582;-42
2022/10/25 07:35:38;;;;;;;18.63;12.00;;;13.60;99.90;;;;;;5033364;28;20208;-45
2022/10/25 07:38:06;;;;;;;26.97;13.17;;;13.60;99.90;;;;;;5022355;28;20278;-43
2022/10/25 07:40:33;;;;;;;22.67;12.93;;;13.60;99.90;;;;;;5036220;28;20199;-41
2022/10/25 07:42:59;;;;;;;18.00;13.03;;;13.60;99.90;;;;;;5039546;28;20229;-41
2022/10/25 07:45:27;;;;;;;21.70;12.67;;;13.60;99.90;;;;;;5042546;28;20303;-43
2022/10/25 07:47:54;;;;;;;24.40;13.60;;;13.60;99.90;;;;;;5044542;28;20207;-43
2022/10/25 07:50:21;;;;;;;17.17;12.87;;;13.70;99.90;;;;;;5040937;28;20264;-43
2022/10/25 07:52:48;;;;;;;16.53;12.17;;;13.70;99.90;;;;;;5026599;28;20304;-43
2022/10/25 07:55:15;;;;;;;17.37;12.40;;;13.80;99.90;;;;;;5027450;28;20199;-43
2022/10/25 07:57:42;;;;;;;18.90;12.47;;;13.80;99.90;;;;;;5030569;28;20653;-43
2022/10/25 08:00:10;;;;;;;17.23;11.93;;;13.80;99.90;;;;;;5040088;28;20195;-43
2022/10/25 08:02:38;;;;;;;19.57;12.57;;;13.80;99.90;;;;;;5038040;28;20226;-43
2022/10/25 08:05:07;;;;;;;21.67;13.17;;;13.90;99.90;;;;;;5042020;28;20200;-43
2022/10/25 08:07:34;;;;;;;16.67;11.97;;;13.90;99.90;;;;;;5027364;28;20672;-43
2022/10/25 08:10:01;;;;;;;19.40;12.20;;;13.90;99.90;;;;;;5034002;28;20220;-43
2022/10/25 08:12:28;;;;;;;19.13;13.43;;;13.90;99.90;;;;;;5037207;28;20295;-43
2022/10/25 08:14:54;;;;;;;24.10;12.13;;;14.00;99.90;;;;;;5037328;28;20206;-43
2022/10/25 08:17:21;;;;;;;16.93;11.90;;;14.00;99.90;;;;;;5038158;28;20187;-44
2022/10/25 08:19:49;;;;;;;22.03;12.47;;;14.00;99.90;;;;;;5038765;28;20598;-41
2022/10/25 08:22:16;;;;;;;20.23;12.07;;;14.00;99.90;;;;;;5034154;28;20965;-42
2022/10/25 08:24:43;;;;;;;17.40;10.40;;;14.10;99.90;;;;;;5018965;28;20211;-44
2022/10/25 08:27:10;;;;;;;14.70;10.77;;;14.10;99.90;;;;;;5032201;28;20219;-44
2022/10/25 08:29:37;;;;;;;16.20;10.50;;;14.10;99.90;;;;;;5037047;28;20246;-46
2022/10/25 08:32:04;;;;;;;22.33;11.40;;;14.10;99.90;;;;;;5039946;28;20265;-41
2022/10/25 08:34:31;;;;;;;15.33;10.30;;;14.20;99.90;;;;;;5034038;28;20211;-44
2022/10/25 08:36:59;;;;;;;19.90;11.63;;;14.20;99.90;;;;;;5041782;28;20203;-44
2022/10/25 08:39:26;;;;;;;14.13;10.63;;;14.20;99.90;;;;;;5018166;28;20207;-43
2022/10/25 08:41:55;;;;;;;13.90;10.00;;;14.30;99.90;;;;;;5041606;28;20225;-41
2022/10/25 08:44:33;;;;;;;14.23;9.23;;;14.30;99.90;;;;;;5028594;28;21887;-48
2022/10/25 08:47:04;;;;;;;13.17;10.10;;;14.30;99.90;;;;;;5033178;28;20553;-42
2022/10/25 08:49:40;;;;;;;13.57;9.17;;;14.40;99.90;;;;;;5034373;28;20598;-44
2022/10/25 08:52:18;;;;;;;13.53;9.20;;;14.40;99.90;;;;;;5035925;28;20229;-44
2022/10/25 08:54:45;;;;;;;14.50;9.13;;;14.50;99.90;;;;;;5021466;28;20211;-44
2022/10/25 08:57:21;;;;;;;15.30;9.17;;;14.50;99.90;;;;;;5036177;28;20204;-47
2022/10/25 08:59:51;;;;;;;16.80;10.80;;;14.50;99.90;;;;;;5030438;28;20195;-41
2022/10/25 09:02:24;;;;;;;15.33;10.00;;;14.50;99.90;;;;;;5024341;28;20239;-43
2022/10/25 09:04:51;;;;;;;14.73;9.33;;;14.50;99.90;;;;;;5032431;28;20862;-45
2022/10/25 09:07:40;;;;;;;11.37;8.40;;;14.60;99.90;;;;;;5032830;28;20199;-41
2022/10/25 09:10:19;;;;;;;10.33;7.80;;;14.60;99.90;;;;;;5014059;28;20226;-45
2022/10/25 09:12:54;;;;;;;11.20;8.03;;;14.60;99.90;;;;;;5037146;28;20568;-42
2022/10/25 09:15:37;;;;;;;17.27;8.27;;;14.60;99.90;;;;;;5029764;28;20291;-42
2022/10/25 09:18:15;;;;;;;13.53;7.77;;;14.70;99.90;;;;;;5038901;28;20890;-46
2022/10/25 09:20:48;;;;;;;13.33;8.60;;;14.80;99.90;;;;;;5034813;28;20198;-45
2022/10/25 09:23:27;;;;;;;11.73;8.63;;;14.80;99.90;;;;;;5035772;28;20300;-41
2022/10/25 09:26:02;;;;;;;11.50;7.63;;;14.90;99.90;;;;;;5015730;28;20203;-44
2022/10/25 09:28:43;;;;;;;9.30;6.37;;;15.00;99.90;;;;;;5034378;28;20200;-42
2022/10/25 09:31:12;;;;;;;12.97;6.67;;;15.00;99.90;;;;;;5026730;28;20222;-41
2022/10/25 09:33:44;;;;;;;10.93;7.27;;;15.00;99.90;;;;;;5029910;28;20966;-42
2022/10/25 09:36:12;;;;;;;13.47;6.93;;;15.10;99.90;;;;;;5034219;28;20203;-42
2022/10/25 09:38:45;;;;;;;11.20;5.87;;;15.10;99.90;;;;;;5035736;28;20209;-42
2022/10/25 09:41:17;;;;;;;9.30;6.37;;;15.10;99.90;;;;;;5022101;28;20221;-43
2022/10/25 09:43:50;;;;;;;12.80;6.20;;;15.10;99.90;;;;;;5028885;28;20200;-44
2022/10/25 09:46:23;;;;;;;7.43;5.57;;;15.10;99.90;;;;;;5027023;28;20204;-43
2022/10/25 09:48:56;;;;;;;10.03;5.13;;;15.10;99.90;;;;;;5026820;28;20192;-46
2022/10/25 09:51:32;;;;;;;8.37;4.63;;;15.10;99.90;;;;;;5030649;28;20223;-45
2022/10/25 09:54:11;;;;;;;7.90;4.23;;;15.10;99.90;;;;;;5030979;28;20324;-45
2022/10/25 09:56:39;;;;;;;10.50;5.20;;;15.00;99.90;;;;;;5023054;28;20702;-42
2022/10/25 09:59:06;;;;;;;7.30;5.30;;;15.10;99.90;;;;;;5036016;28;20211;-46
2022/10/25 10:01:36;;;;;;;11.37;4.63;;;15.10;99.90;;;;;;5029877;28;20230;-42
2022/10/25 10:04:16;;;;;;;7.97;4.67;;;15.10;99.90;;;;;;5032441;28;20202;-41
2022/10/25 10:06:43;;;;;;;7.37;4.13;;;15.10;99.90;;;;;;5035777;28;20210;-42
2022/10/25 10:09:14;;;;;;;10.47;4.53;;;15.00;99.90;;;;;;5040140;28;20203;-41
2022/10/25 10:11:41;;;;;;;7.53;4.00;;;15.10;99.90;;;;;;5021416;28;20238;-43
2022/10/25 10:14:14;;;;;;;7.80;4.63;;;15.10;99.90;;;;;;5040442;28;20195;-45
2022/10/25 10:16:44;;;;;;;7.77;3.70;;;15.10;99.90;;;;;;5035327;28;20207;-41
2022/10/25 10:19:17;;;;;;;8.10;3.83;;;15.10;99.90;;;;;;5034420;28;20811;-41
2022/10/25 10:21:46;;;;;;;4.23;3.40;;;15.10;99.90;;;;;;5041507;28;20223;-42
2022/10/25 10:24:19;;;;;;;6.57;2.80;;;15.20;99.90;;;;;;5037714;28;20564;-42
2022/10/25 10:26:50;;;;;;;6.20;3.80;;;15.20;99.90;;;;;;5026602;28;20218;-43
2022/10/25 10:29:21;;;;;;;7.17;3.50;;;15.30;99.90;;;;;;5037060;28;20224;-43
2022/10/25 10:31:50;;;;;;;8.70;3.27;;;15.30;99.90;;;;;;5029451;28;20227;-41
2022/10/25 10:34:26;;;;;;;5.50;2.83;;;15.30;99.90;;;;;;5026953;28;20211;-43
2022/10/25 10:37:05;;;;;;;7.30;3.10;;;15.30;99.90;;;;;;5041770;28;20686;-41
2022/10/25 10:39:33;;;;;;;10.63;3.30;;;15.30;99.90;;;;;;5028987;28;20202;-43
2022/10/25 10:42:02;;;;;;;5.17;2.93;;;15.30;99.90;;;;;;5034522;28;20230;-42
2022/10/25 10:44:33;;;;;;;8.00;3.00;;;15.40;99.90;;;;;;5023407;28;20265;-45
2022/10/25 10:47:00;;;;;;;8.13;2.73;;;15.40;99.90;;;;;;5034509;28;20203;-44
2022/10/25 10:49:37;;;;;;;6.80;3.13;;;15.40;99.90;;;;;;5019301;28;20215;-42
2022/10/25 10:52:04;;;;;;;10.47;3.07;;;15.40;99.90;;;;;;5030673;28;20223;-42
2022/10/25 10:54:34;;;;;;;7.00;3.10;;;15.40;99.90;;;;;;5025539;28;20199;-45
2022/10/25 10:57:03;;;;;;;3.67;3.20;;;15.50;99.90;;;;;;5037006;28;20289;-42
2022/10/25 10:59:40;;;;;;;8.43;3.70;;;15.50;99.90;;;;;;5012927;28;20294;-41
2022/10/25 11:02:23;;;;;;;8.60;3.27;;;15.60;99.90;;;;;;5038394;28;20205;-43
2022/10/25 11:04:52;;;;;;;9.87;3.40;;;15.70;99.90;;;;;;5018275;28;20393;-41
2022/10/25 11:07:31;;;;;;;4.93;3.17;;;15.70;99.90;;;;;;5038323;28;20696;-44
2022/10/25 11:10:22;;;;;;;6.90;3.20;;;15.80;99.90;;;;;;5032608;28;20194;-42
2022/10/25 11:13:05;;;;;;;6.53;2.83;;;15.90;99.90;;;;;;5028314;28;20230;-44
2022/10/25 11:15:36;;;;;;;6.27;3.70;;;15.90;99.90;;;;;;5022416;28;20719;-44
2022/10/25 11:18:06;;;;;;;9.03;3.07;;;15.90;99.90;;;;;;5031443;28;20314;-42
2022/10/25 11:20:44;;;;;;;7.30;2.90;;;15.80;99.90;;;;;;5033224;28;20687;-41
2022/10/25 11:23:17;;;;;;;6.87;3.53;;;15.80;99.90;;;;;;5036843;28;20225;-44
2022/10/25 11:25:49;;;;;;;5.13;2.53;;;15.80;99.90;;;;;;5032492;28;20791;-42
2022/10/25 11:28:34;;;;;;;6.83;2.50;;;15.90;99.90;;;;;;5036245;28;20278;-44
2022/10/25 11:31:10;;;;;;;4.80;2.20;;;16.00;99.90;;;;;;5029382;28;20211;-44
2022/10/25 11:33:55;;;;;;;8.27;2.30;;;16.00;99.90;;;;;;5027031;28;20207;-42
2022/10/25 11:36:36;;;;;;;5.83;2.50;;;16.00;99.90;;;;;;5033471;28;20615;-41
2022/10/25 11:39:12;;;;;;;7.00;2.00;;;16.00;99.90;;;;;;5037197;28;20291;-45
2022/10/25 11:41:45;;;;;;;3.07;1.87;;;15.90;99.90;;;;;;5027901;28;20230;-44
2022/10/25 11:44:30;;;;;;;7.73;2.83;;;15.90;99.90;;;;;;5034265;28;20203;-44
2022/10/25 11:47:06;;;;;;;3.87;2.23;;;15.80;99.90;;;;;;5026362;28;20195;-41
2022/10/25 11:49:52;;;;;;;7.60;2.57;;;15.70;99.90;;;;;;5025402;28;20199;-42
2022/10/25 11:52:33;;;;;;;5.43;2.50;;;15.70;99.90;;;;;;5026408;28;20242;-44
2022/10/25 11:55:14;;;;;;;5.23;2.00;;;15.60;99.90;;;;;;5033449;28;20270;-42
2022/10/25 11:57:50;;;;;;;5.17;1.57;;;15.60;99.90;;;;;;5037068;28;20283;-42
2022/10/25 12:00:20;;;;;;;7.33;1.97;;;15.60;99.90;;;;;;5029634;28;20249;-43
2022/10/25 12:03:12;;;;;;;4.63;2.00;;;15.70;99.90;;;;;;5018194;28;20215;-45
2022/10/25 12:05:47;;;;;;;9.50;1.97;;;15.60;99.90;;;;;;5029762;28;20211;-41
2022/10/25 12:08:27;;;;;;;8.60;2.40;;;15.70;99.90;;;;;;5027041;28;20228;-42
2022/10/25 12:11:00;;;;;;;7.90;1.90;;;15.70;99.90;;;;;;5029251;28;20223;-42
2022/10/25 12:13:30;;;;;;;3.90;2.07;;;15.80;99.90;;;;;;5037024;28;20196;-42
2022/10/25 12:15:59;;;;;;;3.60;1.90;;;15.80;99.90;;;;;;5035069;28;20203;-41
2022/10/25 12:18:30;;;;;;;3.63;1.37;;;15.80;99.90;;;;;;5023347;28;20215;-41
2022/10/25 12:20:58;;;;;;;3.47;1.60;;;15.80;99.90;;;;;;5031393;28;20927;-41
2022/10/25 12:23:27;;;;;;;5.57;1.83;;;15.70;99.90;;;;;;5034311;28;20211;-44
2022/10/25 12:25:58;;;;;;;3.27;1.40;;;15.80;99.90;;;;;;5041868;28;20192;-44
2022/10/25 12:28:32;;;;;;;5.23;2.10;;;15.80;99.90;;;;;;5045198;28;20195;-43
2022/10/25 12:31:05;;;;;;;7.50;1.80;;;16.00;99.90;;;;;;5041723;28;20313;-43
2022/10/25 12:33:37;;;;;;;5.43;2.03;;;16.00;99.90;;;;;;5026177;28;20223;-42
2022/10/25 12:36:09;;;;;;;3.23;1.70;;;16.10;99.90;;;;;;5029463;28;20198;-44
2022/10/25 12:38:38;;;;;;;7.33;1.90;;;16.20;99.90;;;;;;5029271;28;20211;-44
2022/10/25 12:41:09;;;;;;;7.20;2.17;;;16.10;99.90;;;;;;5038275;28;20203;-44
2022/10/25 12:43:44;;;;;;;5.00;1.70;;;16.10;99.90;;;;;;5039510;28;20672;-42
2022/10/25 12:46:43;;;;;;;5.17;2.10;;;16.10;99.90;;;;;;5031342;28;20199;-45
2022/10/25 12:49:25;;;;;;;8.23;2.03;;;16.10;99.90;;;;;;5018622;28;20204;-44
2022/10/25 12:52:18;;;;;;;7.43;2.20;;;16.10;99.90;;;;;;5039889;28;20583;-43
2022/10/25 12:55:08;;;;;;;7.07;1.93;;;16.30;99.90;;;;;;5026649;28;20211;-42